sensor_id;sensor_type;location;lat;lon;timestamp;pressure;altitude;pressure_sealevel;temperature;humidity
6387;BME280;3226;42.162;24.756;2023-04-24T00:01:07;99545.00;;;8.84;81.60
6387;BME280;3226;42.162;24.756;2023-04-24T00:03:36;99545.69;;;8.97;81.55
6387;BME280;3226;42.162;24.756;2023-04-24T00:06:05;99543.34;;;9.06;82.49
6387;BME280;3226;42.162;24.756;2023-04-24T00:08:34;99542.38;;;9.07;82.92
6387;BME280;3226;42.162;24.756;2023-04-24T00:11:03;99552.13;;;9.16;82.34
6387;BME280;3226;42.162;24.756;2023-04-24T00:13:31;99542.47;;;9.28;82.08
6387;BME280;3226;42.162;24.756;2023-04-24T00:16:00;99546.97;;;9.37;81.37
6387;BME280;3226;42.162;24.756;2023-04-24T00:18:28;99544.84;;;9.31;81.16
6387;BME280;3226;42.162;24.756;2023-04-24T00:20:56;99548.28;;;9.32;81.90
6387;BME280;3226;42.162;24.756;2023-04-24T00:23:25;99528.81;;;9.24;82.69
6387;BME280;3226;42.162;24.756;2023-04-24T00:25:53;99541.31;;;9.21;84.01
6387;BME280;3226;42.162;24.756;2023-04-24T00:28:21;99541.84;;;9.36;83.83
6387;BME280;3226;42.162;24.756;2023-04-24T00:30:49;99547.59;;;9.18;83.38
6387;BME280;3226;42.162;24.756;2023-04-24T00:33:18;99538.72;;;8.98;84.75
6387;BME280;3226;42.162;24.756;2023-04-24T00:35:46;99534.28;;;8.99;86.55
6387;BME280;3226;42.162;24.756;2023-04-24T00:38:14;99535.75;;;9.03;85.12
6387;BME280;3226;42.162;24.756;2023-04-24T00:40:42;99528.50;;;8.95;86.46
6387;BME280;3226;42.162;24.756;2023-04-24T00:43:10;99528.47;;;9.06;86.08
6387;BME280;3226;42.162;24.756;2023-04-24T00:45:38;99537.50;;;9.14;85.56
6387;BME280;3226;42.162;24.756;2023-04-24T00:48:06;99534.00;;;9.36;85.15
6387;BME280;3226;42.162;24.756;2023-04-24T00:50:38;99526.22;;;9.24;85.62
6387;BME280;3226;42.162;24.756;2023-04-24T00:53:06;99535.13;;;9.10;86.07
6387;BME280;3226;42.162;24.756;2023-04-24T00:55:34;99543.44;;;9.16;86.24
6387;BME280;3226;42.162;24.756;2023-04-24T00:58:04;99541.88;;;9.24;86.71
6387;BME280;3226;42.162;24.756;2023-04-24T01:00:32;99538.56;;;9.22;86.69
6387;BME280;3226;42.162;24.756;2023-04-24T01:03:01;99536.78;;;9.23;85.92
6387;BME280;3226;42.162;24.756;2023-04-24T01:05:33;99537.50;;;9.02;87.07
6387;BME280;3226;42.162;24.756;2023-04-24T01:08:02;99539.53;;;9.10;88.03
6387;BME280;3226;42.162;24.756;2023-04-24T01:10:31;99541.69;;;9.05;88.10
6387;BME280;3226;42.162;24.756;2023-04-24T01:13:00;99531.81;;;9.20;87.39
6387;BME280;3226;42.162;24.756;2023-04-24T01:15:28;99528.13;;;9.00;88.50
6387;BME280;3226;42.162;24.756;2023-04-24T01:17:56;99529.78;;;8.89;87.59
6387;BME280;3226;42.162;24.756;2023-04-24T01:20:24;99526.25;;;8.79;88.83
6387;BME280;3226;42.162;24.756;2023-04-24T01:22:55;99521.84;;;8.79;88.47
6387;BME280;3226;42.162;24.756;2023-04-24T01:25:24;99519.56;;;8.63;90.55
6387;BME280;3226;42.162;24.756;2023-04-24T01:27:53;99525.16;;;8.70;89.68
6387;BME280;3226;42.162;24.756;2023-04-24T01:30:21;99536.44;;;8.82;89.70
6387;BME280;3226;42.162;24.756;2023-04-24T01:32:49;99534.31;;;8.76;89.50
6387;BME280;3226;42.162;24.756;2023-04-24T01:35:18;99544.41;;;8.92;89.60
6387;BME280;3226;42.162;24.756;2023-04-24T01:37:46;99531.22;;;8.93;89.65
6387;BME280;3226;42.162;24.756;2023-04-24T01:40:15;99535.84;;;9.01;89.24
6387;BME280;3226;42.162;24.756;2023-04-24T01:42:43;99538.44;;;9.13;88.86
6387;BME280;3226;42.162;24.756;2023-04-24T01:45:12;99537.97;;;9.07;88.73
6387;BME280;3226;42.162;24.756;2023-04-24T01:47:40;99533.34;;;9.11;89.83
6387;BME280;3226;42.162;24.756;2023-04-24T01:50:09;99532.06;;;8.94;90.35
6387;BME280;3226;42.162;24.756;2023-04-24T01:52:37;99533.47;;;8.98;89.74
6387;BME280;3226;42.162;24.756;2023-04-24T01:55:06;99538.81;;;8.96;90.42
6387;BME280;3226;42.162;24.756;2023-04-24T01:57:36;99536.34;;;8.95;89.41
6387;BME280;3226;42.162;24.756;2023-04-24T02:00:05;99536.56;;;9.03;89.58
6387;BME280;3226;42.162;24.756;2023-04-24T02:02:34;99532.66;;;9.09;89.35
6387;BME280;3226;42.162;24.756;2023-04-24T02:05:02;99533.94;;;9.03;90.33
6387;BME280;3226;42.162;24.756;2023-04-24T02:07:30;99530.16;;;8.85;90.74
6387;BME280;3226;42.162;24.756;2023-04-24T02:09:59;99538.34;;;8.80;90.64
6387;BME280;3226;42.162;24.756;2023-04-24T02:12:27;99532.03;;;8.60;90.52
6387;BME280;3226;42.162;24.756;2023-04-24T02:14:56;99523.56;;;8.33;92.36
6387;BME280;3226;42.162;24.756;2023-04-24T02:17:24;99515.81;;;8.20;93.14
6387;BME280;3226;42.162;24.756;2023-04-24T02:19:52;99517.72;;;8.18;93.90
6387;BME280;3226;42.162;24.756;2023-04-24T02:22:20;99519.28;;;8.32;93.98
6387;BME280;3226;42.162;24.756;2023-04-24T02:24:49;99508.97;;;7.95;95.43
6387;BME280;3226;42.162;24.756;2023-04-24T02:27:16;99512.94;;;8.12;94.70
6387;BME280;3226;42.162;24.756;2023-04-24T02:29:44;99510.63;;;8.32;93.73
6387;BME280;3226;42.162;24.756;2023-04-24T02:32:14;99503.09;;;8.16;93.98
6387;BME280;3226;42.162;24.756;2023-04-24T02:34:42;99501.53;;;8.02;94.19
6387;BME280;3226;42.162;24.756;2023-04-24T02:37:10;99505.16;;;7.88;96.30
6387;BME280;3226;42.162;24.756;2023-04-24T02:39:38;99501.28;;;7.93;96.04
6387;BME280;3226;42.162;24.756;2023-04-24T02:42:06;99496.84;;;7.82;96.12
6387;BME280;3226;42.162;24.756;2023-04-24T02:44:34;99509.16;;;7.80;97.91
6387;BME280;3226;42.162;24.756;2023-04-24T02:47:02;99498.66;;;7.93;97.86
6387;BME280;3226;42.162;24.756;2023-04-24T02:49:32;99508.31;;;8.04;96.92
6387;BME280;3226;42.162;24.756;2023-04-24T02:52:00;99510.19;;;8.02;96.62
6387;BME280;3226;42.162;24.756;2023-04-24T02:54:28;99507.28;;;8.18;95.81
6387;BME280;3226;42.162;24.756;2023-04-24T02:56:56;99499.09;;;8.23;96.28
6387;BME280;3226;42.162;24.756;2023-04-24T02:59:24;99506.91;;;8.12;96.64
6387;BME280;3226;42.162;24.756;2023-04-24T03:01:53;99507.59;;;8.14;95.77
6387;BME280;3226;42.162;24.756;2023-04-24T03:04:21;99507.03;;;7.86;98.42
6387;BME280;3226;42.162;24.756;2023-04-24T03:06:51;99503.78;;;7.71;99.91
6387;BME280;3226;42.162;24.756;2023-04-24T03:09:19;99502.47;;;8.01;99.14
6387;BME280;3226;42.162;24.756;2023-04-24T03:11:47;99509.59;;;7.99;99.39
6387;BME280;3226;42.162;24.756;2023-04-24T03:14:16;99504.69;;;7.94;98.76
6387;BME280;3226;42.162;24.756;2023-04-24T03:16:44;99511.78;;;7.92;98.99
6387;BME280;3226;42.162;24.756;2023-04-24T03:19:12;99509.34;;;8.02;98.55
6387;BME280;3226;42.162;24.756;2023-04-24T03:21:40;99515.44;;;8.14;98.49
6387;BME280;3226;42.162;24.756;2023-04-24T03:24:09;99520.34;;;8.30;98.65
6387;BME280;3226;42.162;24.756;2023-04-24T03:26:37;99524.13;;;8.37;98.52
6387;BME280;3226;42.162;24.756;2023-04-24T03:29:05;99519.00;;;8.24;99.09
6387;BME280;3226;42.162;24.756;2023-04-24T03:31:33;99527.31;;;8.18;98.39
6387;BME280;3226;42.162;24.756;2023-04-24T03:34:01;99520.75;;;8.12;98.25
6387;BME280;3226;42.162;24.756;2023-04-24T03:36:29;99529.91;;;8.18;96.71
6387;BME280;3226;42.162;24.756;2023-04-24T03:38:58;99533.22;;;8.20;97.14
6387;BME280;3226;42.162;24.756;2023-04-24T03:41:27;99526.44;;;8.06;98.17
6387;BME280;3226;42.162;24.756;2023-04-24T03:43:55;99526.47;;;8.17;96.84
6387;BME280;3226;42.162;24.756;2023-04-24T03:46:23;99527.28;;;8.06;98.65
6387;BME280;3226;42.162;24.756;2023-04-24T03:48:51;99519.44;;;8.06;97.62
6387;BME280;3226;42.162;24.756;2023-04-24T03:51:19;99519.47;;;8.18;97.17
6387;BME280;3226;42.162;24.756;2023-04-24T03:53:47;99511.63;;;8.06;97.68
6387;BME280;3226;42.162;24.756;2023-04-24T03:56:15;99515.91;;;8.19;96.84
6387;BME280;3226;42.162;24.756;2023-04-24T03:58:44;99509.25;;;8.03;96.97
6387;BME280;3226;42.162;24.756;2023-04-24T04:01:12;99487.59;;;8.14;95.85
6387;BME280;3226;42.162;24.756;2023-04-24T04:03:42;99525.81;;;8.38;95.69
6387;BME280;3226;42.162;24.756;2023-04-24T04:06:10;99524.94;;;8.26;93.32
6387;BME280;3226;42.162;24.756;2023-04-24T04:08:39;99530.84;;;8.05;93.80
6387;BME280;3226;42.162;24.756;2023-04-24T04:11:07;99530.34;;;8.00;94.30
6387;BME280;3226;42.162;24.756;2023-04-24T04:13:35;99538.50;;;7.95;93.37
6387;BME280;3226;42.162;24.756;2023-04-24T04:16:05;99547.66;;;8.01;94.65
6387;BME280;3226;42.162;24.756;2023-04-24T04:18:33;99549.47;;;7.88;93.84
6387;BME280;3226;42.162;24.756;2023-04-24T04:21:01;99536.94;;;7.69;94.65
6387;BME280;3226;42.162;24.756;2023-04-24T04:23:29;99550.88;;;7.56;96.31
6387;BME280;3226;42.162;24.756;2023-04-24T04:25:58;99546.56;;;7.68;94.71
6387;BME280;3226;42.162;24.756;2023-04-24T04:28:26;99548.44;;;7.90;94.85
6387;BME280;3226;42.162;24.756;2023-04-24T04:30:54;99551.94;;;8.14;93.35
6387;BME280;3226;42.162;24.756;2023-04-24T04:33:25;99558.81;;;8.03;91.94
6387;BME280;3226;42.162;24.756;2023-04-24T04:35:53;99521.38;;;7.80;91.27
6387;BME280;3226;42.162;24.756;2023-04-24T04:38:23;99548.41;;;8.15;91.02
6387;BME280;3226;42.162;24.756;2023-04-24T04:40:53;99552.47;;;8.66;90.16
6387;BME280;3226;42.162;24.756;2023-04-24T04:43:23;99552.09;;;8.59;89.31
6387;BME280;3226;42.162;24.756;2023-04-24T04:45:51;99546.19;;;8.68;89.32
6387;BME280;3226;42.162;24.756;2023-04-24T04:48:21;99533.72;;;8.61;87.25
6387;BME280;3226;42.162;24.756;2023-04-24T04:50:50;99561.25;;;8.99;86.89
6387;BME280;3226;42.162;24.756;2023-04-24T04:53:18;99554.25;;;9.22;85.57
6387;BME280;3226;42.162;24.756;2023-04-24T04:55:46;99558.16;;;9.17;84.48
6387;BME280;3226;42.162;24.756;2023-04-24T04:58:14;99553.66;;;8.96;85.38
6387;BME280;3226;42.162;24.756;2023-04-24T05:00:42;99545.25;;;9.04;84.89
6387;BME280;3226;42.162;24.756;2023-04-24T05:03:10;99543.69;;;9.01;85.21
6387;BME280;3226;42.162;24.756;2023-04-24T05:05:44;99534.53;;;8.84;85.37
6387;BME280;3226;42.162;24.756;2023-04-24T05:08:13;99534.88;;;9.14;86.57
6387;BME280;3226;42.162;24.756;2023-04-24T05:10:53;99544.63;;;9.11;85.94
6387;BME280;3226;42.162;24.756;2023-04-24T05:13:23;99546.88;;;9.28;86.10
6387;BME280;3226;42.162;24.756;2023-04-24T05:16:05;99547.88;;;9.59;85.15
6387;BME280;3226;42.162;24.756;2023-04-24T05:18:33;99541.91;;;9.68;83.75
6387;BME280;3226;42.162;24.756;2023-04-24T05:21:01;99536.66;;;10.22;82.13
6387;BME280;3226;42.162;24.756;2023-04-24T05:23:30;99529.03;;;10.31;80.57
6387;BME280;3226;42.162;24.756;2023-04-24T05:25:58;99534.28;;;10.31;81.15
6387;BME280;3226;42.162;24.756;2023-04-24T05:28:26;99536.06;;;10.51;80.37
6387;BME280;3226;42.162;24.756;2023-04-24T05:30:55;99520.72;;;10.68;80.78
6387;BME280;3226;42.162;24.756;2023-04-24T05:33:23;99522.38;;;10.69;78.63
6387;BME280;3226;42.162;24.756;2023-04-24T05:35:51;99518.44;;;10.53;78.31
6387;BME280;3226;42.162;24.756;2023-04-24T05:38:19;99511.25;;;10.46;80.60
6387;BME280;3226;42.162;24.756;2023-04-24T05:40:49;99508.28;;;10.60;80.21
6387;BME280;3226;42.162;24.756;2023-04-24T05:43:17;99512.56;;;10.61;79.17
6387;BME280;3226;42.162;24.756;2023-04-24T05:45:45;99513.75;;;11.29;76.83
6387;BME280;3226;42.162;24.756;2023-04-24T05:48:12;99512.72;;;11.91;74.10
6387;BME280;3226;42.162;24.756;2023-04-24T05:50:40;99516.59;;;11.86;73.49
6387;BME280;3226;42.162;24.756;2023-04-24T05:53:08;99515.88;;;12.24;72.24
6387;BME280;3226;42.162;24.756;2023-04-24T05:55:37;99520.91;;;12.55;71.34
6387;BME280;3226;42.162;24.756;2023-04-24T05:58:06;99507.72;;;11.68;75.69
6387;BME280;3226;42.162;24.756;2023-04-24T06:00:34;99508.16;;;11.93;75.78
6387;BME280;3226;42.162;24.756;2023-04-24T06:03:02;99514.72;;;12.56;73.48
6387;BME280;3226;42.162;24.756;2023-04-24T06:05:31;99513.59;;;12.49;72.64
6387;BME280;3226;42.162;24.756;2023-04-24T06:07:59;99521.19;;;12.52;72.90
6387;BME280;3226;42.162;24.756;2023-04-24T06:10:27;99517.41;;;11.97;76.12
6387;BME280;3226;42.162;24.756;2023-04-24T06:12:55;99520.97;;;12.25;74.40
6387;BME280;3226;42.162;24.756;2023-04-24T06:15:30;99520.97;;;12.35;74.06
6387;BME280;3226;42.162;24.756;2023-04-24T06:17:58;99524.06;;;12.01;75.39
6387;BME280;3226;42.162;24.756;2023-04-24T06:20:26;99509.38;;;12.28;76.97
6387;BME280;3226;42.162;24.756;2023-04-24T06:22:54;99513.44;;;12.60;75.04
6387;BME280;3226;42.162;24.756;2023-04-24T06:25:24;99519.59;;;12.41;75.34
6387;BME280;3226;42.162;24.756;2023-04-24T06:27:53;99512.28;;;12.25;75.23
6387;BME280;3226;42.162;24.756;2023-04-24T06:30:21;99482.06;;;12.01;75.60
6387;BME280;3226;42.162;24.756;2023-04-24T06:32:51;99508.63;;;12.46;73.19
6387;BME280;3226;42.162;24.756;2023-04-24T06:35:19;99518.22;;;12.75;73.88
6387;BME280;3226;42.162;24.756;2023-04-24T06:37:47;99519.66;;;12.97;72.65
6387;BME280;3226;42.162;24.756;2023-04-24T06:40:15;99519.09;;;12.65;72.85
6387;BME280;3226;42.162;24.756;2023-04-24T06:42:45;99521.47;;;12.96;73.12
6387;BME280;3226;42.162;24.756;2023-04-24T06:45:13;99515.53;;;12.56;73.08
6387;BME280;3226;42.162;24.756;2023-04-24T06:47:41;99523.00;;;12.89;74.21
6387;BME280;3226;42.162;24.756;2023-04-24T06:50:10;99518.63;;;13.08;71.12
6387;BME280;3226;42.162;24.756;2023-04-24T06:52:39;99522.88;;;13.19;67.86
6387;BME280;3226;42.162;24.756;2023-04-24T06:55:07;99522.72;;;13.48;67.45
6387;BME280;3226;42.162;24.756;2023-04-24T06:57:36;99526.63;;;13.34;69.21
6387;BME280;3226;42.162;24.756;2023-04-24T07:00:05;99520.66;;;13.42;67.36
6387;BME280;3226;42.162;24.756;2023-04-24T07:02:36;99530.00;;;13.54;68.00
6387;BME280;3226;42.162;24.756;2023-04-24T07:05:04;99529.69;;;13.57;68.73
6387;BME280;3226;42.162;24.756;2023-04-24T07:07:34;99524.13;;;13.42;65.95
6387;BME280;3226;42.162;24.756;2023-04-24T07:10:05;99528.06;;;13.56;66.38
6387;BME280;3226;42.162;24.756;2023-04-24T07:12:33;99529.91;;;13.18;66.71
6387;BME280;3226;42.162;24.756;2023-04-24T07:15:02;99525.09;;;12.85;67.84
6387;BME280;3226;42.162;24.756;2023-04-24T07:17:30;99532.13;;;13.51;67.08
6387;BME280;3226;42.162;24.756;2023-04-24T07:19:58;99532.94;;;13.69;67.26
6387;BME280;3226;42.162;24.756;2023-04-24T07:22:26;99533.09;;;13.50;67.06
6387;BME280;3226;42.162;24.756;2023-04-24T07:24:55;99526.69;;;13.24;67.21
6387;BME280;3226;42.162;24.756;2023-04-24T07:27:23;99525.13;;;13.59;66.09
6387;BME280;3226;42.162;24.756;2023-04-24T07:29:51;99526.03;;;13.50;66.25
6387;BME280;3226;42.162;24.756;2023-04-24T07:32:19;99531.75;;;13.64;64.14
6387;BME280;3226;42.162;24.756;2023-04-24T07:34:47;99524.66;;;13.46;65.01
6387;BME280;3226;42.162;24.756;2023-04-24T07:37:15;99522.72;;;13.48;65.61
6387;BME280;3226;42.162;24.756;2023-04-24T07:39:43;99524.25;;;13.69;64.99
6387;BME280;3226;42.162;24.756;2023-04-24T07:42:13;99530.47;;;13.86;63.44
6387;BME280;3226;42.162;24.756;2023-04-24T07:44:41;99522.88;;;13.83;63.01
6387;BME280;3226;42.162;24.756;2023-04-24T07:47:09;99527.25;;;13.74;66.28
6387;BME280;3226;42.162;24.756;2023-04-24T07:49:37;99520.81;;;13.95;64.10
6387;BME280;3226;42.162;24.756;2023-04-24T07:52:04;99521.22;;;14.00;63.61
6387;BME280;3226;42.162;24.756;2023-04-24T07:54:32;99524.03;;;14.25;63.05
6387;BME280;3226;42.162;24.756;2023-04-24T07:57:01;99515.66;;;14.29;62.08
6387;BME280;3226;42.162;24.756;2023-04-24T07:59:30;99516.63;;;14.55;61.37
6387;BME280;3226;42.162;24.756;2023-04-24T08:01:58;99514.41;;;14.42;62.42
6387;BME280;3226;42.162;24.756;2023-04-24T08:04:27;99510.59;;;14.89;63.08
6387;BME280;3226;42.162;24.756;2023-04-24T08:06:56;99510.69;;;14.79;61.44
6387;BME280;3226;42.162;24.756;2023-04-24T08:09:24;99490.13;;;14.30;62.58
6387;BME280;3226;42.162;24.756;2023-04-24T08:11:53;99505.94;;;14.03;64.28
6387;BME280;3226;42.162;24.756;2023-04-24T08:14:21;99509.69;;;14.45;65.48
6387;BME280;3226;42.162;24.756;2023-04-24T08:16:50;99511.22;;;14.56;63.13
6387;BME280;3226;42.162;24.756;2023-04-24T08:19:18;99512.16;;;14.73;63.55
6387;BME280;3226;42.162;24.756;2023-04-24T08:21:46;99499.06;;;14.90;62.02
6387;BME280;3226;42.162;24.756;2023-04-24T08:24:14;99497.00;;;15.18;61.71
6387;BME280;3226;42.162;24.756;2023-04-24T08:26:42;99491.78;;;15.43;61.79
6387;BME280;3226;42.162;24.756;2023-04-24T08:29:10;99484.66;;;15.36;60.64
6387;BME280;3226;42.162;24.756;2023-04-24T08:31:38;99487.22;;;15.02;61.86
6387;BME280;3226;42.162;24.756;2023-04-24T08:34:08;99483.53;;;15.30;60.72
6387;BME280;3226;42.162;24.756;2023-04-24T08:36:36;99476.78;;;15.52;61.08
6387;BME280;3226;42.162;24.756;2023-04-24T08:39:13;99475.09;;;15.35;62.47
6387;BME280;3226;42.162;24.756;2023-04-24T08:41:42;99472.31;;;15.44;61.74
6387;BME280;3226;42.162;24.756;2023-04-24T08:44:12;99464.25;;;15.63;60.58
6387;BME280;3226;42.162;24.756;2023-04-24T08:46:43;99467.06;;;15.69;60.57
6387;BME280;3226;42.162;24.756;2023-04-24T08:49:15;99465.72;;;15.32;62.22
6387;BME280;3226;42.162;24.756;2023-04-24T08:51:44;99464.03;;;15.14;61.39
6387;BME280;3226;42.162;24.756;2023-04-24T08:54:13;99464.78;;;14.98;62.60
6387;BME280;3226;42.162;24.756;2023-04-24T08:56:43;99460.28;;;15.42;62.66
6387;BME280;3226;42.162;24.756;2023-04-24T08:59:11;99459.13;;;15.36;61.84
6387;BME280;3226;42.162;24.756;2023-04-24T09:01:40;99457.59;;;15.17;61.68
6387;BME280;3226;42.162;24.756;2023-04-24T09:04:09;99450.41;;;15.52;61.32
6387;BME280;3226;42.162;24.756;2023-04-24T09:06:40;99449.03;;;15.23;63.01
6387;BME280;3226;42.162;24.756;2023-04-24T09:09:10;99446.59;;;15.22;62.62
6387;BME280;3226;42.162;24.756;2023-04-24T09:11:38;99442.09;;;15.14;61.89
6387;BME280;3226;42.162;24.756;2023-04-24T09:14:06;99438.63;;;15.13;63.04
6387;BME280;3226;42.162;24.756;2023-04-24T09:16:36;99442.78;;;15.32;63.07
6387;BME280;3226;42.162;24.756;2023-04-24T09:19:04;99447.41;;;15.30;62.83
6387;BME280;3226;42.162;24.756;2023-04-24T09:21:32;99449.75;;;15.50;64.15
6387;BME280;3226;42.162;24.756;2023-04-24T09:24:04;99431.75;;;15.37;61.46
6387;BME280;3226;42.162;24.756;2023-04-24T09:26:35;99442.81;;;15.49;63.33
6387;BME280;3226;42.162;24.756;2023-04-24T09:29:04;99437.69;;;15.31;61.33
6387;BME280;3226;42.162;24.756;2023-04-24T09:31:32;99421.03;;;15.22;62.87
6387;BME280;3226;42.162;24.756;2023-04-24T09:34:01;99431.59;;;15.39;61.81
6387;BME280;3226;42.162;24.756;2023-04-24T09:36:34;99423.00;;;15.86;61.54
6387;BME280;3226;42.162;24.756;2023-04-24T09:39:06;99423.69;;;15.80;59.49
6387;BME280;3226;42.162;24.756;2023-04-24T09:41:44;99421.38;;;15.85;59.83
6387;BME280;3226;42.162;24.756;2023-04-24T09:44:13;99417.81;;;16.26;62.42
6387;BME280;3226;42.162;24.756;2023-04-24T09:46:43;99412.66;;;16.41;57.61
6387;BME280;3226;42.162;24.756;2023-04-24T09:49:14;99416.41;;;15.99;56.95
6387;BME280;3226;42.162;24.756;2023-04-24T09:51:43;99412.22;;;16.29;56.75
6387;BME280;3226;42.162;24.756;2023-04-24T09:54:15;99397.41;;;16.60;55.77
6387;BME280;3226;42.162;24.756;2023-04-24T09:56:44;99403.22;;;16.47;55.81
6387;BME280;3226;42.162;24.756;2023-04-24T09:59:13;99393.06;;;16.67;59.37
6387;BME280;3226;42.162;24.756;2023-04-24T10:01:42;99385.34;;;16.89;57.59
6387;BME280;3226;42.162;24.756;2023-04-24T10:04:18;99391.59;;;16.96;57.59
6387;BME280;3226;42.162;24.756;2023-04-24T10:06:48;99405.72;;;17.12;56.70
6387;BME280;3226;42.162;24.756;2023-04-24T10:09:19;99401.22;;;17.20;55.83
6387;BME280;3226;42.162;24.756;2023-04-24T10:11:48;99394.66;;;17.55;55.18
6387;BME280;3226;42.162;24.756;2023-04-24T10:14:18;99396.84;;;17.89;54.21
6387;BME280;3226;42.162;24.756;2023-04-24T10:16:47;99381.34;;;17.25;54.34
6387;BME280;3226;42.162;24.756;2023-04-24T10:19:16;99388.25;;;17.49;53.87
6387;BME280;3226;42.162;24.756;2023-04-24T10:21:46;99383.78;;;17.88;53.05
6387;BME280;3226;42.162;24.756;2023-04-24T10:24:14;99377.72;;;17.79;55.24
6387;BME280;3226;42.162;24.756;2023-04-24T10:26:45;99373.03;;;17.51;53.42
6387;BME280;3226;42.162;24.756;2023-04-24T10:29:17;99371.06;;;17.83;53.46
6387;BME280;3226;42.162;24.756;2023-04-24T10:31:45;99367.59;;;17.83;53.20
6387;BME280;3226;42.162;24.756;2023-04-24T10:34:15;99351.06;;;17.27;55.02
6387;BME280;3226;42.162;24.756;2023-04-24T10:36:50;99365.50;;;17.93;54.28
6387;BME280;3226;42.162;24.756;2023-04-24T10:39:23;99358.00;;;17.67;54.15
6387;BME280;3226;42.162;24.756;2023-04-24T10:41:55;99356.91;;;17.76;56.80
6387;BME280;3226;42.162;24.756;2023-04-24T10:44:24;99350.88;;;17.82;54.79
6387;BME280;3226;42.162;24.756;2023-04-24T10:46:54;99337.53;;;17.60;54.14
6387;BME280;3226;42.162;24.756;2023-04-24T10:49:28;99341.34;;;17.58;54.10
6387;BME280;3226;42.162;24.756;2023-04-24T10:52:00;99336.78;;;17.52;54.43
6387;BME280;3226;42.162;24.756;2023-04-24T10:54:33;99339.41;;;17.37;54.64
6387;BME280;3226;42.162;24.756;2023-04-24T10:57:26;99335.91;;;17.74;54.35
6387;BME280;3226;42.162;24.756;2023-04-24T11:00:13;99332.34;;;17.82;53.82
6387;BME280;3226;42.162;24.756;2023-04-24T11:02:42;99330.66;;;18.04;54.98
6387;BME280;3226;42.162;24.756;2023-04-24T11:05:16;99323.78;;;18.10;53.54
6387;BME280;3226;42.162;24.756;2023-04-24T11:08:12;99315.44;;;17.83;54.17
6387;BME280;3226;42.162;24.756;2023-04-24T11:10:43;99314.75;;;17.89;53.75
6387;BME280;3226;42.162;24.756;2023-04-24T11:13:15;99312.38;;;18.25;54.43
6387;BME280;3226;42.162;24.756;2023-04-24T11:15:44;99310.16;;;18.13;53.74
6387;BME280;3226;42.162;24.756;2023-04-24T11:18:15;99309.72;;;18.25;53.93
6387;BME280;3226;42.162;24.756;2023-04-24T11:20:43;99304.41;;;18.25;53.08
6387;BME280;3226;42.162;24.756;2023-04-24T11:23:12;99299.78;;;18.48;53.43
6387;BME280;3226;42.162;24.756;2023-04-24T11:25:41;99298.06;;;18.41;52.68
6387;BME280;3226;42.162;24.756;2023-04-24T11:28:15;99299.72;;;18.42;52.42
6387;BME280;3226;42.162;24.756;2023-04-24T11:30:44;99289.44;;;18.17;53.03
6387;BME280;3226;42.162;24.756;2023-04-24T11:33:19;99281.84;;;18.50;53.17
6387;BME280;3226;42.162;24.756;2023-04-24T11:35:48;99286.41;;;18.78;52.69
6387;BME280;3226;42.162;24.756;2023-04-24T11:38:17;99278.22;;;18.95;51.86
6387;BME280;3226;42.162;24.756;2023-04-24T11:40:51;99267.25;;;18.98;54.17
6387;BME280;3226;42.162;24.756;2023-04-24T11:43:21;99275.88;;;19.07;53.49
6387;BME280;3226;42.162;24.756;2023-04-24T11:45:50;99273.50;;;19.12;50.96
6387;BME280;3226;42.162;24.756;2023-04-24T11:48:19;99277.00;;;19.48;51.91
6387;BME280;3226;42.162;24.756;2023-04-24T11:50:49;99266.09;;;19.71;51.84
6387;BME280;3226;42.162;24.756;2023-04-24T11:53:19;99257.72;;;20.03;49.78
6387;BME280;3226;42.162;24.756;2023-04-24T11:55:47;99244.84;;;20.13;49.88
6387;BME280;3226;42.162;24.756;2023-04-24T11:58:15;99247.34;;;20.21;49.24
6387;BME280;3226;42.162;24.756;2023-04-24T12:00:56;99230.16;;;20.31;49.66
6387;BME280;3226;42.162;24.756;2023-04-24T12:03:24;99230.72;;;20.13;50.22
6387;BME280;3226;42.162;24.756;2023-04-24T12:05:53;99233.63;;;20.25;49.33
6387;BME280;3226;42.162;24.756;2023-04-24T12:08:32;99220.38;;;20.45;48.28
6387;BME280;3226;42.162;24.756;2023-04-24T12:11:04;99224.91;;;20.44;49.15
6387;BME280;3226;42.162;24.756;2023-04-24T12:13:34;99215.75;;;19.91;50.00
6387;BME280;3226;42.162;24.756;2023-04-24T12:16:04;99204.56;;;20.03;49.44
6387;BME280;3226;42.162;24.756;2023-04-24T12:18:32;99197.03;;;20.20;49.59
6387;BME280;3226;42.162;24.756;2023-04-24T12:21:19;99186.34;;;20.06;50.35
6387;BME280;3226;42.162;24.756;2023-04-24T12:23:48;99177.16;;;20.02;49.70
6387;BME280;3226;42.162;24.756;2023-04-24T12:26:17;99183.53;;;20.21;49.40
6387;BME280;3226;42.162;24.756;2023-04-24T12:28:47;99165.34;;;20.32;49.61
6387;BME280;3226;42.162;24.756;2023-04-24T12:31:20;99145.44;;;19.94;50.99
6387;BME280;3226;42.162;24.756;2023-04-24T12:33:49;99163.44;;;19.92;50.20
6387;BME280;3226;42.162;24.756;2023-04-24T12:36:17;99156.00;;;19.74;51.20
6387;BME280;3226;42.162;24.756;2023-04-24T12:38:45;99150.06;;;19.72;51.88
6387;BME280;3226;42.162;24.756;2023-04-24T12:41:13;99147.34;;;19.58;52.71
6387;BME280;3226;42.162;24.756;2023-04-24T12:43:51;99146.78;;;19.70;51.33
6387;BME280;3226;42.162;24.756;2023-04-24T12:46:21;99138.97;;;19.61;51.93
6387;BME280;3226;42.162;24.756;2023-04-24T12:48:49;99113.66;;;19.59;52.16
6387;BME280;3226;42.162;24.756;2023-04-24T12:51:17;99138.19;;;19.74;51.14
6387;BME280;3226;42.162;24.756;2023-04-24T12:53:45;99126.69;;;19.54;51.46
6387;BME280;3226;42.162;24.756;2023-04-24T12:56:13;99128.34;;;19.61;52.73
6387;BME280;3226;42.162;24.756;2023-04-24T12:58:41;99113.28;;;19.82;51.29
6387;BME280;3226;42.162;24.756;2023-04-24T13:01:09;99121.88;;;19.84;50.39
6387;BME280;3226;42.162;24.756;2023-04-24T13:03:39;99117.66;;;19.97;50.10
6387;BME280;3226;42.162;24.756;2023-04-24T13:06:07;99111.56;;;20.16;49.60
6387;BME280;3226;42.162;24.756;2023-04-24T13:08:35;99113.38;;;20.09;50.89
6387;BME280;3226;42.162;24.756;2023-04-24T13:11:03;99105.84;;;20.26;48.99
6387;BME280;3226;42.162;24.756;2023-04-24T13:13:32;99102.97;;;20.14;48.55
6387;BME280;3226;42.162;24.756;2023-04-24T13:16:00;99100.09;;;20.22;49.25
6387;BME280;3226;42.162;24.756;2023-04-24T13:18:28;99095.19;;;20.06;49.53
6387;BME280;3226;42.162;24.756;2023-04-24T13:20:57;99090.31;;;20.23;48.95
6387;BME280;3226;42.162;24.756;2023-04-24T13:23:25;99090.91;;;20.18;48.32
6387;BME280;3226;42.162;24.756;2023-04-24T13:25:54;99091.72;;;20.26;48.00